ESSD Airport Information

Runway Information
Runway 14 Length 7579 ft width 148 ft
Elevation 503 ft Threshold 0 ft Heading 133
Runway 32 Length 7579 ft Width 148 ft
Elevation 493 ft Threshold 0 ft Heading 313
Airport Frequencies
Type TWR Name TWR Frequency 127.3 MHZ
Airport Navaids
Type VOR-DME Name Borlange Frequency 117600 KHZ
Airport Weather Information & NOTAM
ADDS - METARS form results

(1516 UTC 26 September 2021)
Data provider http://aviationweather.gov/metar/data/
 
METAR text: ESSD 261450Z AUTO 19007KT 9999 OVC200/// 17/07 Q1021
Conditions at: ESSD (BORLANGE (SWE-AF, SE) observed 1450 UTC 26 September 2021
Temperature: 17.0°C (63°F)
Dewpoint: 7.0°C (45°F) [RH = 52%]
Pressure (altimeter): 30.15 inches Hg (1021.0 mb)
Winds: from the S (190 degrees) at 8 MPH (7 knots; 3.6 m/s)
Visibility: 6 or more miles (10+ km)
Ceiling: 20000 feet AGL
Clouds: overcast cloud deck at 20000 feet AGL
Weather: no significant weather observed at this time

METAR text: ESSD 261420Z AUTO 18008KT 140V210 9999 BKN200/// 16/06 Q1021
Conditions at: ESSD (BORLANGE (SWE-AF, SE) observed 1420 UTC 26 September 2021
Temperature: 16.0°C (61°F)
Dewpoint: 6.0°C (43°F) [RH = 51%]
Pressure (altimeter): 30.15 inches Hg (1021.0 mb)
Winds: from the S (180 degrees) at 9 MPH (8 knots; 4.1 m/s)
Visibility: 6 or more miles (10+ km)
Ceiling: 20000 feet AGL
Clouds: broken clouds at 20000 feet AGL
Weather: no significant weather observed at this time